createdAt,value
2022-09-22T00:01:31.277Z,12.97
2022-09-22T00:04:03.597Z,9.07
2022-09-22T00:06:47.299Z,8.90
2022-09-22T00:09:18.868Z,14.40
2022-09-22T00:11:51.708Z,8.87
2022-09-22T00:14:24.455Z,8.27
2022-09-22T00:16:57.956Z,8.17
2022-09-22T00:19:32.443Z,7.13
2022-09-22T00:21:59.943Z,8.47
2022-09-22T00:24:28.170Z,7.77
2022-09-22T00:26:57.746Z,10.23
2022-09-22T00:29:27.476Z,8.73
2022-09-22T00:31:56.614Z,11.73
2022-09-22T00:34:26.683Z,10.63
2022-09-22T00:36:54.010Z,7.97
2022-09-22T00:39:21.772Z,6.93
2022-09-22T00:41:52.337Z,7.87
2022-09-22T00:44:34.282Z,6.23
2022-09-22T00:47:41.189Z,6.77
2022-09-22T00:50:10.769Z,7.47
2022-09-22T00:52:50.957Z,8.87
2022-09-22T00:55:30.096Z,9.40
2022-09-22T00:57:59.351Z,9.03
2022-09-22T01:00:26.254Z,8.87
2022-09-22T01:02:59.089Z,9.43
2022-09-22T01:05:29.297Z,7.70
2022-09-22T01:07:56.171Z,9.70
2022-09-22T01:10:24.194Z,9.30
2022-09-22T01:13:26.569Z,7.20
2022-09-22T01:16:11.750Z,7.77
2022-09-22T01:18:54.454Z,6.23
2022-09-22T01:21:46.184Z,7.67
2022-09-22T01:25:02.563Z,7.40
2022-09-22T01:27:53.682Z,9.23
2022-09-22T01:30:37.646Z,7.03
2022-09-22T01:33:41.963Z,8.03
2022-09-22T01:36:21.150Z,6.13
2022-09-22T01:39:04.228Z,6.50
2022-09-22T01:41:59.043Z,7.93
2022-09-22T01:44:37.953Z,10.30
2022-09-22T01:47:53.605Z,9.00
2022-09-22T01:50:33.032Z,7.93
2022-09-22T01:53:07.294Z,8.33
2022-09-22T01:55:39.628Z,11.47
2022-09-22T01:58:12.713Z,11.53
2022-09-22T02:00:47.299Z,8.97
2022-09-22T02:03:33.698Z,11.67
2022-09-22T02:06:13.942Z,11.17
2022-09-22T02:08:53.757Z,12.47
2022-09-22T02:11:23.119Z,8.30
2022-09-22T02:13:50.225Z,7.13
2022-09-22T02:16:21.456Z,11.33
2022-09-22T02:18:55.994Z,7.77
2022-09-22T02:21:28.002Z,10.63
2022-09-22T02:23:55.556Z,9.37
2022-09-22T02:26:30.218Z,9.43
2022-09-22T02:29:10.945Z,12.60
2022-09-22T02:31:39.948Z,9.83
2022-09-22T02:34:08.764Z,11.57
2022-09-22T02:37:00.738Z,13.03
2022-09-22T02:39:49.710Z,9.23
2022-09-22T02:42:27.896Z,11.60
2022-09-22T02:45:17.331Z,9.93
2022-09-22T02:48:09.032Z,8.17
2022-09-22T02:50:36.488Z,10.57
2022-09-22T02:53:12.668Z,7.50
2022-09-22T02:55:41.048Z,9.07
2022-09-22T02:58:07.795Z,8.57
2022-09-22T03:00:34.695Z,7.97
2022-09-22T03:03:01.430Z,8.70
2022-09-22T03:05:28.292Z,9.80
2022-09-22T03:07:55.225Z,10.10
2022-09-22T03:10:22.259Z,8.17
2022-09-22T03:13:14.333Z,9.80
2022-09-22T03:15:35.849Z,8.10
2022-09-22T03:18:02.979Z,6.83
2022-09-22T03:20:29.770Z,8.23
2022-09-22T03:22:56.551Z,8.97
2022-09-22T03:25:23.424Z,10.63
2022-09-22T03:27:50.256Z,9.33
2022-09-22T03:30:17.050Z,7.77
2022-09-22T03:32:44.177Z,8.50
2022-09-22T03:35:11.006Z,14.50
2022-09-22T03:37:37.856Z,7.07
2022-09-22T03:40:05.386Z,7.70
2022-09-22T03:42:34.698Z,6.60
2022-09-22T03:45:03.111Z,7.17
2022-09-22T03:47:30.034Z,8.00
2022-09-22T03:49:56.862Z,7.37
2022-09-22T03:52:24.081Z,7.33
2022-09-22T03:54:52.119Z,7.73
2022-09-22T03:57:18.855Z,6.30
2022-09-22T03:59:45.781Z,7.93
2022-09-22T04:02:13.901Z,6.77
2022-09-22T04:04:40.690Z,8.00
2022-09-22T04:07:07.745Z,5.67
2022-09-22T04:09:35.245Z,11.00
2022-09-22T04:12:02.334Z,7.77
2022-09-22T04:14:29.406Z,8.70
2022-09-22T04:16:56.657Z,6.57
2022-09-22T04:19:23.755Z,6.70
2022-09-22T04:21:56.194Z,6.43
2022-09-22T04:24:24.447Z,7.00
2022-09-22T04:27:18.051Z,7.23
2022-09-22T04:29:38.489Z,8.17
2022-09-22T04:32:05.762Z,8.03
2022-09-22T04:34:32.716Z,7.27
2022-09-22T04:36:59.604Z,7.57
2022-09-22T04:39:28.548Z,5.13
2022-09-22T04:41:55.569Z,6.23
2022-09-22T04:44:22.571Z,8.07
2022-09-22T04:46:50.185Z,6.30
2022-09-22T04:49:18.242Z,5.43
2022-09-22T04:51:45.342Z,7.63
2022-09-22T04:54:13.448Z,8.10
2022-09-22T04:56:42.133Z,6.60
2022-09-22T04:59:09.578Z,5.57
2022-09-22T05:01:36.589Z,9.43
2022-09-22T05:04:03.873Z,6.67
2022-09-22T05:06:31.148Z,5.87
2022-09-22T05:08:58.570Z,8.60
2022-09-22T05:11:25.537Z,7.10
2022-09-22T05:13:52.309Z,8.23
2022-09-22T05:16:19.498Z,8.03
2022-09-22T05:18:46.482Z,9.13
2022-09-22T05:21:13.302Z,11.97
2022-09-22T05:23:40.079Z,11.07
2022-09-22T05:26:07.006Z,15.43
2022-09-22T05:28:33.948Z,14.13
2022-09-22T05:31:00.960Z,11.90
2022-09-22T05:33:27.743Z,11.30
2022-09-22T05:35:54.598Z,13.07
2022-09-22T05:38:21.374Z,10.30
2022-09-22T05:40:48.403Z,8.13
2022-09-22T05:43:15.939Z,9.00
2022-09-22T05:45:44.625Z,9.70
2022-09-22T05:48:11.527Z,7.27
2022-09-22T05:50:38.390Z,8.13
2022-09-22T05:53:08.711Z,7.87
2022-09-22T05:55:36.362Z,8.57
2022-09-22T05:58:03.533Z,10.30
2022-09-22T06:00:31.422Z,11.23
2022-09-22T06:02:58.387Z,10.27
2022-09-22T06:05:25.210Z,10.27
2022-09-22T06:08:05.101Z,10.67
2022-09-22T06:10:34.750Z,13.53
2022-09-22T06:13:07.918Z,10.63
2022-09-22T06:15:36.214Z,9.73
2022-09-22T06:18:07.270Z,11.27
2022-09-22T06:20:35.832Z,9.40
2022-09-22T06:23:02.802Z,8.77
2022-09-22T06:25:30.119Z,12.07
2022-09-22T06:28:04.808Z,11.40
2022-09-22T06:30:40.095Z,8.03
2022-09-22T06:33:08.748Z,9.07
2022-09-22T06:35:37.607Z,9.27
2022-09-22T06:38:06.709Z,7.03
2022-09-22T06:40:36.425Z,8.53
2022-09-22T06:43:11.731Z,8.70
2022-09-22T06:45:39.908Z,8.47
2022-09-22T06:48:10.243Z,7.13
2022-09-22T06:50:38.772Z,6.27
2022-09-22T06:53:08.341Z,5.87
2022-09-22T06:55:41.499Z,6.20
2022-09-22T06:58:10.443Z,7.00
2022-09-22T07:00:37.453Z,8.80
2022-09-22T07:03:20.747Z,6.80
2022-09-22T07:06:01.240Z,5.32
2022-09-22T07:08:33.932Z,10.63
2022-09-22T07:11:09.033Z,7.53
2022-09-22T07:13:39.999Z,5.85
2022-09-22T07:16:12.809Z,4.88
2022-09-22T07:18:42.641Z,4.85
2022-09-22T07:21:13.460Z,5.47
2022-09-22T07:23:41.194Z,5.65
2022-09-22T07:26:15.819Z,6.50
2022-09-22T07:28:44.769Z,3.70
2022-09-22T07:31:14.544Z,6.38
2022-09-22T07:33:44.146Z,5.50
2022-09-22T07:36:15.954Z,4.35
2022-09-22T07:38:46.626Z,3.97
2022-09-22T07:41:27.519Z,4.32
2022-09-22T07:43:57.791Z,4.65
2022-09-22T07:46:24.719Z,4.57
2022-09-22T07:48:51.576Z,4.78
2022-09-22T07:51:22.371Z,6.07
2022-09-22T07:54:09.585Z,5.82
2022-09-22T07:56:43.642Z,4.85
2022-09-22T07:59:13.616Z,4.00
2022-09-22T08:01:44.527Z,5.03
2022-09-22T08:04:15.594Z,5.40
2022-09-22T08:06:48.626Z,4.50
2022-09-22T08:09:15.858Z,5.13
2022-09-22T08:11:45.916Z,5.20
2022-09-22T08:14:13.140Z,4.35
2022-09-22T08:16:40.904Z,7.82
2022-09-22T08:19:12.553Z,5.90
2022-09-22T08:21:49.517Z,3.35
2022-09-22T08:24:21.899Z,2.80
2022-09-22T08:26:51.981Z,5.25
2022-09-22T08:29:19.203Z,3.78
2022-09-22T08:31:46.861Z,4.57
2022-09-22T08:34:16.594Z,4.97
2022-09-22T08:36:47.163Z,6.13
2022-09-22T08:39:15.648Z,4.35
2022-09-22T08:42:00.304Z,4.65
2022-09-22T08:44:39.410Z,2.47
2022-09-22T08:47:06.521Z,3.78
2022-09-22T08:50:08.941Z,2.00
2022-09-22T08:52:38.931Z,1.80
2022-09-22T08:55:17.537Z,2.75
2022-09-22T08:58:09.041Z,1.92
2022-09-22T09:01:40.670Z,1.40
2022-09-22T09:05:00.046Z,1.50
2022-09-22T09:08:02.381Z,2.38
2022-09-22T09:11:28.807Z,0.70
2022-09-22T09:14:27.617Z,1.15
2022-09-22T09:17:26.511Z,1.13
2022-09-22T09:20:46.660Z,1.65
2022-09-22T09:23:21.281Z,1.42
2022-09-22T09:25:55.899Z,1.30
2022-09-22T09:28:55.135Z,1.40
2022-09-22T09:31:48.695Z,1.00
2022-09-22T09:34:18.708Z,1.58
2022-09-22T09:36:58.186Z,0.68
2022-09-22T09:39:33.202Z,1.85
2022-09-22T09:42:06.866Z,3.05
2022-09-22T09:44:39.951Z,2.45
2022-09-22T09:47:26.112Z,1.17
2022-09-22T09:49:54.297Z,1.73
2022-09-22T09:52:25.725Z,2.92
2022-09-22T09:54:53.976Z,1.20
2022-09-22T09:57:27.625Z,3.95
2022-09-22T10:00:33.219Z,0.70
2022-09-22T10:03:02.783Z,1.63
2022-09-22T10:05:32.366Z,0.90
2022-09-22T10:08:16.421Z,2.17
2022-09-22T10:10:43.520Z,1.73
2022-09-22T10:13:11.728Z,1.02
2022-09-22T10:15:43.271Z,3.72
2022-09-22T10:18:40.761Z,1.00
2022-09-22T10:21:24.824Z,1.65
2022-09-22T10:23:54.992Z,2.65
2022-09-22T10:26:31.670Z,2.15
2022-09-22T10:29:18.493Z,1.27
2022-09-22T10:32:12.595Z,1.30
2022-09-22T10:34:51.023Z,2.08
2022-09-22T10:37:30.498Z,1.35
2022-09-22T10:40:03.450Z,1.40
2022-09-22T10:42:46.155Z,1.98
2022-09-22T10:45:19.165Z,2.20
2022-09-22T10:48:26.648Z,2.75
2022-09-22T10:51:12.520Z,1.33
2022-09-22T10:54:17.818Z,1.80
2022-09-22T10:56:57.203Z,1.83
2022-09-22T10:59:57.828Z,1.00
2022-09-22T11:02:58.312Z,2.10
2022-09-22T11:06:36.831Z,2.00
2022-09-22T11:09:43.326Z,2.28
2022-09-22T11:12:49.503Z,2.50
2022-09-22T11:16:13.340Z,1.45
2022-09-22T11:18:49.237Z,2.15
2022-09-22T11:22:04.048Z,2.78
2022-09-22T11:24:53.520Z,1.52
2022-09-22T11:27:51.577Z,2.05
2022-09-22T11:30:22.937Z,2.65
2022-09-22T11:33:05.727Z,2.70
2022-09-22T11:35:49.165Z,2.58
2022-09-22T11:38:50.446Z,1.50
2022-09-22T11:41:29.702Z,2.33
2022-09-22T11:44:32.180Z,1.75
2022-09-22T11:47:41.452Z,1.92
2022-09-22T11:50:44.027Z,1.45
2022-09-22T11:53:41.529Z,0.90
2022-09-22T11:56:38.757Z,2.25
2022-09-22T12:00:02.420Z,2.35
2022-09-22T12:02:41.435Z,5.53
2022-09-22T12:05:26.999Z,3.20
2022-09-22T12:08:01.721Z,0.63
2022-09-22T12:10:38.515Z,2.10
2022-09-22T12:13:16.187Z,3.50
2022-09-22T12:16:12.232Z,1.00
2022-09-22T12:18:54.766Z,2.83
2022-09-22T12:21:53.353Z,0.88
2022-09-22T12:24:20.467Z,1.15
2022-09-22T12:26:49.777Z,1.15
2022-09-22T12:29:16.468Z,1.80
2022-09-22T12:31:49.553Z,1.08
2022-09-22T12:34:25.146Z,2.08
2022-09-22T12:36:56.804Z,3.20
2022-09-22T12:39:28.915Z,1.88
2022-09-22T12:42:04.568Z,1.42
2022-09-22T12:44:45.906Z,2.10
2022-09-22T12:47:34.474Z,1.33
2022-09-22T12:50:07.131Z,1.50
2022-09-22T12:53:03.778Z,1.77
2022-09-22T12:55:39.093Z,1.60
2022-09-22T12:58:28.653Z,2.47
2022-09-22T13:01:27.161Z,2.40
2022-09-22T13:04:13.515Z,1.48
2022-09-22T13:06:40.267Z,1.58
2022-09-22T13:09:09.522Z,2.20
2022-09-22T13:12:11.558Z,1.48
2022-09-22T13:15:11.113Z,1.73
2022-09-22T13:17:42.424Z,1.60
2022-09-22T13:20:29.505Z,1.85
2022-09-22T13:23:14.266Z,1.50
2022-09-22T13:25:44.441Z,1.05
2022-09-22T13:28:22.972Z,1.92
2022-09-22T13:31:15.259Z,1.70
2022-09-22T13:33:43.120Z,1.10
2022-09-22T13:36:16.074Z,2.17
2022-09-22T13:38:50.796Z,2.15
2022-09-22T13:41:25.450Z,1.65
2022-09-22T13:44:03.648Z,1.20
2022-09-22T13:46:42.162Z,1.35
2022-09-22T13:49:13.435Z,1.58
2022-09-22T13:51:40.435Z,1.17
2022-09-22T13:54:09.410Z,1.60
2022-09-22T13:56:37.857Z,1.75
2022-09-22T13:59:05.562Z,1.55
2022-09-22T14:01:32.534Z,1.70
2022-09-22T14:03:59.525Z,2.08
2022-09-22T14:06:31.348Z,0.73
2022-09-22T14:09:01.529Z,1.08
2022-09-22T14:11:33.112Z,1.25
2022-09-22T14:14:02.654Z,1.38
2022-09-22T14:16:59.717Z,1.77
2022-09-22T14:19:34.210Z,1.42
2022-09-22T14:22:05.281Z,2.58
2022-09-22T14:24:37.015Z,1.85
2022-09-22T14:27:07.284Z,0.88
2022-09-22T14:29:49.602Z,2.05
2022-09-22T14:32:53.067Z,3.08
2022-09-22T14:35:31.731Z,0.75
2022-09-22T14:38:13.654Z,1.58
2022-09-22T14:40:54.647Z,0.77
2022-09-22T14:43:27.496Z,0.90
2022-09-22T14:46:08.741Z,1.10
2022-09-22T14:48:36.566Z,1.77
2022-09-22T14:51:20.318Z,2.22
2022-09-22T14:53:55.336Z,0.80
2022-09-22T14:56:34.121Z,0.75
2022-09-22T14:59:26.253Z,2.90
2022-09-22T15:02:14.075Z,0.88
2022-09-22T15:04:50.905Z,1.00
2022-09-22T15:07:31.272Z,2.72
2022-09-22T15:10:03.136Z,0.60
2022-09-22T15:12:39.830Z,1.58
2022-09-22T15:15:31.783Z,2.05
2022-09-22T15:18:19.411Z,1.58
2022-09-22T15:20:58.781Z,1.55
2022-09-22T15:23:41.250Z,1.30
2022-09-22T15:26:27.210Z,1.70
2022-09-22T15:28:56.322Z,2.03
2022-09-22T15:31:29.616Z,0.90
2022-09-22T15:34:01.404Z,1.88
2022-09-22T15:36:34.271Z,2.13
2022-09-22T15:39:11.851Z,1.80
2022-09-22T15:41:38.623Z,1.73
2022-09-22T15:44:05.603Z,1.48
2022-09-22T15:46:37.765Z,3.05
2022-09-22T15:49:22.389Z,3.50
2022-09-22T15:51:49.704Z,2.25
2022-09-22T15:54:19.913Z,0.98
2022-09-22T15:56:50.887Z,2.67
2022-09-22T15:59:22.239Z,2.45
2022-09-22T16:01:51.726Z,1.70
2022-09-22T16:04:20.044Z,2.83
2022-09-22T16:06:54.581Z,2.13
2022-09-22T16:09:21.415Z,2.08
2022-09-22T16:11:48.566Z,3.28
2022-09-22T16:14:15.481Z,2.03
2022-09-22T16:16:42.937Z,1.98
2022-09-22T16:19:10.422Z,4.40
2022-09-22T16:21:43.379Z,5.05
2022-09-22T16:24:11.683Z,3.28
2022-09-22T16:26:40.411Z,2.08
2022-09-22T16:29:08.710Z,1.83
2022-09-22T16:31:37.262Z,1.40
2022-09-22T16:34:06.762Z,4.63
2022-09-22T16:36:36.078Z,3.35
2022-09-22T16:39:04.173Z,2.50
2022-09-22T16:41:33.669Z,2.58
2022-09-22T16:44:01.933Z,2.92
2022-09-22T16:46:30.701Z,2.83
2022-09-22T16:49:09.844Z,3.10
2022-09-22T16:51:40.883Z,2.65
2022-09-22T16:54:13.118Z,3.95
2022-09-22T16:56:43.402Z,3.55
2022-09-22T16:59:13.246Z,2.08
2022-09-22T17:01:40.006Z,3.10
2022-09-22T17:04:08.445Z,2.13
2022-09-22T17:06:38.256Z,1.42
2022-09-22T17:09:06.917Z,1.40
2022-09-22T17:11:43.782Z,1.83
2022-09-22T17:14:16.112Z,2.20
2022-09-22T17:16:51.747Z,2.85
2022-09-22T17:19:26.122Z,4.57
2022-09-22T17:21:55.642Z,3.35
2022-09-22T17:24:24.639Z,2.95
2022-09-22T17:26:57.772Z,3.53
2022-09-22T17:29:28.300Z,1.63
2022-09-22T17:31:59.657Z,3.75
2022-09-22T17:34:31.479Z,2.92
2022-09-22T17:36:59.330Z,3.38
2022-09-22T17:39:28.684Z,3.17
2022-09-22T17:41:55.505Z,2.47
2022-09-22T17:44:23.570Z,3.35
2022-09-22T17:47:11.188Z,3.20
2022-09-22T17:49:58.187Z,3.97
2022-09-22T17:52:28.396Z,4.65
2022-09-22T17:55:07.982Z,2.65
2022-09-22T17:57:41.701Z,5.22
2022-09-22T18:00:21.959Z,5.97
2022-09-22T18:02:52.670Z,11.30
2022-09-22T18:05:25.381Z,12.52
2022-09-22T18:07:57.626Z,10.55
2022-09-22T18:10:32.044Z,8.93
2022-09-22T18:12:59.700Z,6.03
2022-09-22T18:15:27.841Z,10.63
2022-09-22T18:17:57.687Z,8.70
2022-09-22T18:20:26.109Z,8.00
2022-09-22T18:22:54.183Z,7.63
2022-09-22T18:25:23.876Z,9.10
2022-09-22T18:27:53.176Z,11.00
2022-09-22T18:30:19.984Z,14.15
2022-09-22T18:32:47.941Z,11.23
2022-09-22T18:35:15.490Z,9.63
2022-09-22T18:37:42.460Z,10.32
2022-09-22T18:40:12.151Z,11.50
2022-09-22T18:42:39.277Z,10.23
2022-09-22T18:45:06.799Z,12.65
2022-09-22T18:47:39.585Z,11.38
2022-09-22T18:50:07.195Z,16.70
2022-09-22T18:52:34.548Z,18.17
2022-09-22T18:55:04.627Z,14.68
2022-09-22T18:57:31.390Z,10.27
2022-09-22T19:00:00.261Z,8.18
2022-09-22T19:02:27.284Z,4.25
2022-09-22T19:04:54.224Z,3.42
2022-09-22T19:07:42.381Z,5.22
2022-09-22T19:10:21.571Z,5.47
2022-09-22T19:12:49.518Z,9.82
2022-09-22T19:15:18.844Z,8.85
2022-09-22T19:17:49.428Z,11.73
2022-09-22T19:20:22.356Z,12.50
2022-09-22T19:22:50.514Z,12.27
2022-09-22T19:25:18.340Z,14.90
2022-09-22T19:27:45.238Z,8.38
2022-09-22T19:30:12.892Z,4.43
2022-09-22T19:32:40.553Z,6.57
2022-09-22T19:35:09.231Z,4.70
2022-09-22T19:37:36.351Z,3.83
2022-09-22T19:40:08.483Z,4.88
2022-09-22T19:42:40.415Z,7.80
2022-09-22T19:45:09.556Z,7.77
2022-09-22T19:47:37.035Z,5.33
2022-09-22T19:50:05.215Z,9.13
2022-09-22T19:52:31.936Z,10.37
2022-09-22T19:54:58.878Z,14.90
2022-09-22T19:57:25.680Z,26.08
2022-09-22T19:59:52.635Z,28.30
2022-09-22T20:02:20.740Z,41.90
2022-09-22T20:04:47.524Z,33.50
2022-09-22T20:07:14.416Z,35.22
2022-09-22T20:09:41.813Z,34.50
2022-09-22T20:12:08.580Z,28.87
2022-09-22T20:14:35.342Z,25.23
2022-09-22T20:17:08.391Z,25.03
2022-09-22T20:19:38.432Z,20.47
2022-09-22T20:22:19.691Z,19.60
2022-09-22T20:24:54.654Z,12.13
2022-09-22T20:27:34.679Z,12.30
2022-09-22T20:30:01.968Z,9.73
2022-09-22T20:32:34.538Z,8.40
2022-09-22T20:35:02.123Z,12.73
2022-09-22T20:37:31.842Z,12.20
2022-09-22T20:39:58.592Z,13.93
2022-09-22T20:42:25.326Z,11.10
2022-09-22T20:44:52.130Z,10.03
2022-09-22T20:47:25.397Z,9.53
2022-09-22T20:49:52.236Z,6.87
2022-09-22T20:52:20.743Z,10.67
2022-09-22T20:54:48.147Z,12.03
2022-09-22T20:57:15.168Z,10.30
2022-09-22T20:59:45.428Z,10.93
2022-09-22T21:02:13.928Z,11.27
2022-09-22T21:04:41.229Z,11.43
2022-09-22T21:07:08.458Z,10.87
2022-09-22T21:09:53.986Z,7.47
2022-09-22T21:12:20.766Z,9.57
2022-09-22T21:14:48.714Z,10.80
2022-09-22T21:17:15.597Z,12.43
2022-09-22T21:19:43.238Z,13.67
2022-09-22T21:22:10.312Z,10.27
2022-09-22T21:24:37.198Z,10.47
2022-09-22T21:27:04.848Z,13.10
2022-09-22T21:29:32.052Z,11.20
2022-09-22T21:31:59.618Z,10.00
2022-09-22T21:34:26.599Z,11.67
2022-09-22T21:36:53.354Z,8.03
2022-09-22T21:39:21.385Z,9.77
2022-09-22T21:41:48.204Z,7.13
2022-09-22T21:44:15.069Z,8.63
2022-09-22T21:46:42.161Z,8.40
2022-09-22T21:49:10.624Z,7.57
2022-09-22T21:51:44.116Z,9.10
2022-09-22T21:54:18.071Z,10.60
2022-09-22T21:56:45.365Z,9.83
2022-09-22T21:59:13.093Z,12.70
2022-09-22T22:01:42.210Z,10.17
2022-09-22T22:04:10.284Z,11.83
2022-09-22T22:06:42.949Z,8.43
2022-09-22T22:09:18.245Z,9.93
2022-09-22T22:11:57.442Z,10.20
2022-09-22T22:14:32.573Z,9.57
2022-09-22T22:17:02.016Z,9.00
2022-09-22T22:19:29.827Z,10.10
2022-09-22T22:21:56.637Z,10.90
2022-09-22T22:24:27.534Z,9.53
2022-09-22T22:27:06.210Z,8.20
2022-09-22T22:29:38.385Z,9.33
2022-09-22T22:32:07.352Z,7.97
2022-09-22T22:34:34.209Z,7.00
2022-09-22T22:37:01.088Z,7.40
2022-09-22T22:39:28.310Z,7.97
2022-09-22T22:41:55.152Z,9.77
2022-09-22T22:44:22.501Z,8.40
2022-09-22T22:46:49.380Z,10.10
2022-09-22T22:49:16.212Z,7.73
2022-09-22T22:51:43.581Z,8.20
2022-09-22T22:54:11.814Z,7.17
2022-09-22T22:56:42.067Z,7.83
2022-09-22T22:59:10.919Z,7.47
2022-09-22T23:01:37.877Z,7.53
2022-09-22T23:04:07.641Z,11.23
2022-09-22T23:06:39.432Z,6.77
2022-09-22T23:09:11.081Z,8.57
2022-09-22T23:11:40.031Z,11.73
2022-09-22T23:14:11.673Z,8.07
2022-09-22T23:16:46.944Z,8.37
2022-09-22T23:19:17.551Z,11.47
2022-09-22T23:21:45.532Z,7.40
2022-09-22T23:24:19.026Z,8.43
2022-09-22T23:26:46.527Z,10.10
2022-09-22T23:29:14.210Z,7.30
2022-09-22T23:31:41.278Z,10.53
2022-09-22T23:34:08.114Z,9.27
2022-09-22T23:36:35.152Z,10.73
2022-09-22T23:39:06.167Z,9.83
2022-09-22T23:41:35.789Z,8.33
2022-09-22T23:44:06.514Z,9.27
2022-09-22T23:46:34.107Z,8.67
2022-09-22T23:49:01.207Z,7.57
2022-09-22T23:51:28.064Z,9.67
2022-09-22T23:53:56.118Z,6.90
2022-09-22T23:56:23.762Z,10.43
2022-09-22T23:58:52.095Z,8.00
